Orion Explorer — LNDT — position and weather

sailwx.info

Track history (hours):
 
Tides and Currents Weather Stations Pressure Air Temp Water Temp Dewpoint Dewpoint Depression Visibility Wind Speed Wind Dir Waves Ship Positions

Orion Explorer

Last reported at 2015-Apr-01 12:33 UTC. Time now 2015-Apr-01 13:10 UTC.
Position N 70°32' E 023°33'.

Length 59 m; draft 4.5 m.

Type: Cargo ship. MMSI: 259496000.

Date/timePositionNaut miles runAvg speedWind from/ knotsBaromVisibWave heightAir tempDewpointWater temp
2015-Apr-01 12:33N 70°32' E 023°33'2 2.2
2015-Apr-01 11:33N 70°35' E 023°36'8 7.6
2015-Apr-01 10:34N 70°35' E 023°13'99 7.6
2015-Mar-31 21:33N 69°43' E 019°04'  
2015-Mar-29 02:22N 69°35' E 018°50'810.1
2015-Mar-29 01:32N 69°42' E 019°04'0 0.0
2015-Mar-29 00:33N 69°42' E 019°05'90 9.9
2015-Mar-28 15:33N 70°30' E 022°46'1110.8
2015-Mar-28 14:33N 70°36' E 023°13'11 0.2
2015-Mar-26 11:31N 70°44' E 023°37'6 5.9
2015-Mar-26 10:33N 70°38' E 023°40'1 0.9
2015-Mar-26 09:33N 70°38' E 023°37'6 5.2
2015-Mar-26 08:29N 70°32' E 023°33'104 4.3
2015-Mar-25 08:08N 69°44' E 019°04'610.7
2015-Mar-25 07:33N 69°38' E 018°57'  
Track history (hours):
 
Tides and Currents Weather Stations Pressure Air Temp Water Temp Dewpoint Dewpoint Depression Visibility Wind Speed Wind Dir Waves Ship Positions

Orion Explorer

Last reported at 2015-Apr-01 12:33 UTC. Time now 2015-Apr-01 13:10 UTC.
Position N 70°32' E 023°33'.

Length 59 m; draft 4.5 m.

Type: Cargo ship. MMSI: 259496000.

Date/timePositionNaut miles runAvg speedWind from/ knotsBaromVisibWave heightAir tempDewpointWater temp
2015-Apr-01 12:33N 70°32' E 023°33'2 2.2
2015-Apr-01 11:33N 70°35' E 023°36'8 7.6
2015-Apr-01 10:34N 70°35' E 023°13'99 7.6
2015-Mar-31 21:33N 69°43' E 019°04'  
2015-Mar-29 02:22N 69°35' E 018°50'810.1
2015-Mar-29 01:32N 69°42' E 019°04'0 0.0
2015-Mar-29 00:33N 69°42' E 019°05'90 9.9
2015-Mar-28 15:33N 70°30' E 022°46'1110.8
2015-Mar-28 14:33N 70°36' E 023°13'11 0.2
2015-Mar-26 11:31N 70°44' E 023°37'6 5.9
2015-Mar-26 10:33N 70°38' E 023°40'1 0.9
2015-Mar-26 09:33N 70°38' E 023°37'6 5.2
2015-Mar-26 08:29N 70°32' E 023°33'104 4.3
2015-Mar-25 08:08N 69°44' E 019°04'610.7
2015-Mar-25 07:33N 69°38' E 018°57'  

Dump ship's entire track history